Time;durP1;ratioP1;P1;durP2;ratioP2;P2;SDS_P1;SDS_P2;PMS_P1;PMS_P2;Temp;Humidity;BMP_temperature;BMP_pressure;BME280_temperature;BME280_humidity;BME280_pressure;Samples;Min_cycle;Max_cycle;Signal;HPM_P1;HPM_P2
2022/12/22 03:28:51;;;;;;;133.98;35.70;;;8.60;99.90;;;;;;5396421;23;20074;-79
2022/12/22 03:31:17;;;;;;;169.80;37.95;;;8.60;99.90;;;;;;4977229;28;20527;-80
2022/12/22 03:33:42;;;;;;;117.38;35.03;;;8.60;99.90;;;;;;4993882;28;20050;-79
2022/12/22 03:36:09;;;;;;;110.68;33.65;;;8.50;99.90;;;;;;4976585;28;20060;-81
2022/12/22 03:38:34;;;;;;;178.18;38.28;;;8.60;99.90;;;;;;4979620;28;20133;-83
2022/12/22 03:41:00;;;;;;;124.57;35.28;;;8.60;99.90;;;;;;4969341;28;20125;-79
2022/12/22 03:46:30;;;;;;;144.93;36.38;;;8.50;99.90;;;;;;4976177;28;20061;-80
2022/12/22 03:49:10;;;;;;;190.40;38.63;;;8.60;99.90;;;;;;4992529;28;20306;-80
2022/12/22 03:51:43;;;;;;;122.15;35.10;;;8.60;99.90;;;;;;4976011;28;20060;-82
2022/12/22 03:54:11;;;;;;;166.85;37.80;;;8.60;99.90;;;;;;4986700;28;20045;-80
2022/12/22 03:56:37;;;;;;;211.88;41.67;;;8.60;99.90;;;;;;4977031;28;20045;-83
2022/12/22 03:59:03;;;;;;;217.15;41.05;;;8.60;99.90;;;;;;4986290;28;20076;-79
2022/12/22 04:01:30;;;;;;;180.68;39.47;;;8.60;99.90;;;;;;4984077;28;20046;-79
2022/12/22 04:03:56;;;;;;;125.35;34.17;;;8.50;99.90;;;;;;4992118;28;20403;-79
2022/12/22 04:06:22;;;;;;;156.85;37.45;;;8.50;99.90;;;;;;4945321;28;20045;-79
2022/12/22 04:08:48;;;;;;;164.73;38.50;;;8.50;99.90;;;;;;5008871;28;20050;-81
2022/12/22 04:13:59;;;;;;;149.93;36.70;;;8.60;99.90;;;;;;4993712;28;20735;-79
2022/12/22 04:16:25;;;;;;;152.55;37.70;;;8.60;99.90;;;;;;4989603;28;20137;-80
2022/12/22 04:18:51;;;;;;;141.00;35.88;;;8.60;99.90;;;;;;4971810;28;20054;-80
2022/12/22 04:21:17;;;;;;;235.40;41.60;;;8.60;99.90;;;;;;4989304;28;20510;-80
2022/12/22 04:23:42;;;;;;;228.18;41.60;;;8.60;99.90;;;;;;4989754;28;20547;-83
2022/12/22 04:26:08;;;;;;;177.38;38.78;;;8.60;99.90;;;;;;4987830;28;20514;-80
2022/12/22 04:28:34;;;;;;;202.20;38.90;;;8.60;99.90;;;;;;4993108;28;20066;-79
2022/12/22 04:30:59;;;;;;;162.02;38.05;;;8.60;99.90;;;;;;4982476;28;20156;-79
2022/12/22 04:33:25;;;;;;;205.98;39.40;;;8.60;99.90;;;;;;4992825;28;20187;-82
2022/12/22 04:35:51;;;;;;;205.63;38.00;;;8.60;99.90;;;;;;4989469;28;20123;-79
2022/12/22 04:38:16;;;;;;;268.48;43.28;;;8.60;99.90;;;;;;4981547;28;20108;-80
2022/12/22 04:40:42;;;;;;;214.98;40.90;;;8.60;99.90;;;;;;4944215;28;20042;-79
2022/12/22 04:43:08;;;;;;;227.68;40.25;;;8.60;99.90;;;;;;4986965;28;20106;-80
2022/12/22 04:45:33;;;;;;;370.08;47.25;;;8.60;99.90;;;;;;4969310;28;20081;-79
2022/12/22 04:47:59;;;;;;;288.55;43.47;;;8.60;99.90;;;;;;4973342;28;20365;-80
2022/12/22 04:50:25;;;;;;;286.23;43.67;;;8.60;99.90;;;;;;4985157;28;20129;-80
2022/12/22 04:52:51;;;;;;;284.63;43.42;;;8.60;99.90;;;;;;4991125;28;20053;-81
2022/12/22 04:55:16;;;;;;;254.02;41.17;;;8.60;99.90;;;;;;4976109;28;20046;-79
2022/12/22 04:57:42;;;;;;;371.98;47.47;;;8.60;99.90;;;;;;4975717;28;20141;-79
2022/12/22 05:00:08;;;;;;;407.30;48.30;;;8.60;99.90;;;;;;4989986;28;20053;-80
2022/12/22 05:02:34;;;;;;;447.67;48.80;;;8.60;99.90;;;;;;4990095;28;20056;-80
2022/12/22 05:05:01;;;;;;;320.85;44.35;;;8.60;99.90;;;;;;4974924;28;20076;-79
2022/12/22 05:07:27;;;;;;;312.83;44.75;;;8.60;99.90;;;;;;4990622;28;20054;-79
2022/12/22 05:09:53;;;;;;;250.68;42.45;;;8.60;99.90;;;;;;4976003;28;20454;-79
2022/12/22 05:15:03;;;;;;;251.93;42.88;;;8.60;99.90;;;;;;4972074;28;20489;-80
2022/12/22 05:17:28;;;;;;;220.43;39.97;;;8.50;99.90;;;;;;4982071;28;20057;-80
2022/12/22 05:19:54;;;;;;;282.13;42.15;;;8.50;99.90;;;;;;4957855;28;20053;-80
2022/12/22 05:22:20;;;;;;;270.67;42.00;;;8.60;99.90;;;;;;4969100;28;20591;-79
2022/12/22 05:24:45;;;;;;;162.85;34.90;;;8.60;99.90;;;;;;4965189;28;20057;-80
2022/12/22 05:27:11;;;;;;;169.60;36.65;;;8.60;99.90;;;;;;4988278;28;20569;-80
2022/12/22 05:29:37;;;;;;;234.32;40.58;;;8.50;99.90;;;;;;4986943;28;20058;-80
2022/12/22 05:32:03;;;;;;;178.40;36.70;;;8.50;99.90;;;;;;4989671;28;20068;-84
2022/12/22 05:34:28;;;;;;;189.18;36.33;;;8.60;99.90;;;;;;4991244;28;20046;-80
2022/12/22 05:36:54;;;;;;;190.88;38.35;;;8.50;99.90;;;;;;4989572;28;20038;-81
2022/12/22 05:39:20;;;;;;;165.15;35.88;;;8.60;99.90;;;;;;4974670;28;20050;-79
2022/12/22 05:41:46;;;;;;;183.95;37.20;;;8.50;99.90;;;;;;4990980;28;20077;-83
2022/12/22 05:44:11;;;;;;;164.13;37.30;;;8.50;99.90;;;;;;4969619;28;20492;-80
2022/12/22 05:46:37;;;;;;;194.38;38.38;;;8.50;99.90;;;;;;4973769;28;20553;-81
2022/12/22 05:49:03;;;;;;;156.10;35.78;;;8.50;99.90;;;;;;4970406;28;20033;-80
2022/12/22 05:51:29;;;;;;;175.80;39.10;;;8.50;99.90;;;;;;4961214;28;20057;-79
2022/12/22 05:53:54;;;;;;;154.93;35.17;;;8.50;99.90;;;;;;5007951;28;20052;-84
2022/12/22 05:56:20;;;;;;;135.73;36.17;;;8.50;99.90;;;;;;4973126;28;20392;-81
2022/12/22 05:58:45;;;;;;;154.85;36.55;;;8.50;99.90;;;;;;4979217;28;20104;-81
2022/12/22 06:01:11;;;;;;;150.57;37.42;;;8.50;99.90;;;;;;4956735;28;20056;-79
2022/12/22 06:03:37;;;;;;;153.60;35.85;;;8.50;99.90;;;;;;4975060;28;20073;-79
2022/12/22 06:06:03;;;;;;;141.23;34.05;;;8.50;99.90;;;;;;4963907;28;20129;-79
2022/12/22 06:08:28;;;;;;;138.00;34.30;;;8.50;99.90;;;;;;4973442;28;20061;-79
2022/12/22 06:10:56;;;;;;;104.95;31.08;;;8.40;99.90;;;;;;5001043;28;20084;-80
2022/12/22 06:13:22;;;;;;;132.23;32.72;;;8.30;99.90;;;;;;4986684;28;20529;-79
2022/12/22 06:15:48;;;;;;;147.07;34.47;;;8.30;99.90;;;;;;4971418;28;20559;-80
2022/12/22 06:18:14;;;;;;;137.80;33.20;;;8.30;99.90;;;;;;4986818;28;20100;-83
2022/12/22 06:20:39;;;;;;;105.07;30.05;;;8.30;99.90;;;;;;4969494;28;20046;-83
2022/12/22 06:23:05;;;;;;;116.35;32.03;;;8.20;99.90;;;;;;4947754;28;20113;-79
2022/12/22 06:25:31;;;;;;;116.93;30.95;;;8.20;99.90;;;;;;4949293;28;20050;-80
2022/12/22 06:27:56;;;;;;;122.65;31.95;;;8.20;99.90;;;;;;4982710;28;20069;-79
2022/12/22 06:30:22;;;;;;;94.97;27.00;;;8.10;99.90;;;;;;4974538;28;20054;-80
2022/12/22 06:32:48;;;;;;;108.70;29.33;;;8.10;99.90;;;;;;4962290;28;20057;-80
2022/12/22 06:35:14;;;;;;;112.60;28.55;;;8.00;99.90;;;;;;4972558;28;20037;-79
2022/12/22 06:37:39;;;;;;;93.20;26.98;;;8.00;99.90;;;;;;4995574;28;20485;-80
2022/12/22 06:40:06;;;;;;;106.13;28.80;;;8.00;99.90;;;;;;4992797;28;20046;-83
2022/12/22 06:45:16;;;;;;;105.68;28.55;;;7.90;99.90;;;;;;4988695;28;20077;-80
2022/12/22 06:47:42;;;;;;;123.07;30.88;;;7.90;99.90;;;;;;4988889;28;20516;-79
2022/12/22 06:50:09;;;;;;;111.75;27.85;;;7.80;99.90;;;;;;4993209;28;20125;-80
2022/12/22 06:52:35;;;;;;;104.40;28.08;;;7.70;99.90;;;;;;4988459;28;20050;-82
2022/12/22 06:55:03;;;;;;;113.68;27.50;;;7.60;99.90;;;;;;4987897;28;20125;-81
2022/12/22 06:57:29;;;;;;;119.10;29.75;;;7.50;99.90;;;;;;4973256;28;20045;-78
2022/12/22 06:59:54;;;;;;;115.70;27.25;;;7.30;99.90;;;;;;4958880;28;20046;-82
2022/12/22 07:02:20;;;;;;;128.35;28.33;;;7.20;99.90;;;;;;4991847;28;20084;-78
2022/12/22 07:04:46;;;;;;;144.23;29.98;;;7.10;99.90;;;;;;4992759;28;20085;-80
2022/12/22 07:07:11;;;;;;;106.88;26.92;;;7.00;99.90;;;;;;4993779;28;20053;-83
2022/12/22 07:09:37;;;;;;;135.02;30.40;;;6.90;99.90;;;;;;4991392;28;20411;-76
2022/12/22 07:12:03;;;;;;;118.35;29.92;;;6.90;99.90;;;;;;4973626;28;20050;-77
2022/12/22 07:14:29;;;;;;;156.02;29.77;;;6.80;99.90;;;;;;4985811;28;20089;-78
2022/12/22 07:16:54;;;;;;;131.15;28.42;;;6.80;99.90;;;;;;4973920;28;20049;-80
2022/12/22 07:19:20;;;;;;;144.77;29.48;;;6.70;99.90;;;;;;4975076;28;20072;-79
2022/12/22 07:21:47;;;;;;;145.73;30.40;;;6.60;99.90;;;;;;4991126;28;20053;-79
2022/12/22 07:24:15;;;;;;;147.15;29.67;;;6.60;99.90;;;;;;4982286;28;20058;-77
2022/12/22 07:26:41;;;;;;;147.40;30.20;;;6.50;99.90;;;;;;4978076;28;20045;-77
2022/12/22 07:29:06;;;;;;;156.77;29.95;;;6.50;99.90;;;;;;4989862;28;20062;-77
2022/12/22 07:31:32;;;;;;;166.02;33.47;;;6.50;99.90;;;;;;4993120;28;20049;-78
2022/12/22 07:33:58;;;;;;;156.40;30.55;;;6.70;99.90;;;;;;4960683;28;20502;-77
2022/12/22 07:36:23;;;;;;;191.43;35.25;;;6.80;99.90;;;;;;4983705;28;20038;-76
2022/12/22 07:38:50;;;;;;;167.15;35.47;;;6.90;99.90;;;;;;4976749;28;20065;-77
2022/12/22 07:44:03;;;;;;;132.52;28.02;;;7.10;99.90;;;;;;4993817;28;20060;-77
2022/12/22 07:46:32;;;;;;;162.05;31.23;;;7.20;99.90;;;;;;4973757;28;20046;-77
2022/12/22 07:51:43;;;;;;;129.48;27.52;;;7.20;99.90;;;;;;4997120;28;20061;-77
2022/12/22 07:54:11;;;;;;;143.07;30.02;;;7.20;99.90;;;;;;4965662;28;20467;-77
2022/12/22 07:56:37;;;;;;;108.60;24.80;;;7.20;99.90;;;;;;4990485;28;20061;-77
2022/12/22 07:59:03;;;;;;;113.07;25.70;;;7.10;99.90;;;;;;4976334;28;20068;-77
2022/12/22 08:01:29;;;;;;;106.95;24.80;;;7.00;99.90;;;;;;4987579;28;20480;-77
2022/12/22 08:03:55;;;;;;;117.07;24.55;;;6.90;99.90;;;;;;4974331;28;20057;-77
2022/12/22 08:06:21;;;;;;;125.50;25.02;;;6.90;99.90;;;;;;5006942;28;20049;-77
2022/12/22 08:08:47;;;;;;;139.27;26.58;;;6.90;99.90;;;;;;4958041;28;20077;-77
2022/12/22 08:11:13;;;;;;;152.52;27.40;;;6.90;99.90;;;;;;4994367;28;20073;-80
2022/12/22 08:13:39;;;;;;;167.50;26.48;;;6.90;99.90;;;;;;4979859;28;20050;-76
2022/12/22 08:16:08;;;;;;;120.88;24.02;;;7.00;99.90;;;;;;4985434;28;20056;-78
2022/12/22 08:18:35;;;;;;;119.82;25.63;;;6.90;99.90;;;;;;4966723;28;20550;-77
2022/12/22 08:21:01;;;;;;;110.25;24.02;;;6.90;99.90;;;;;;4973707;28;20049;-77
2022/12/22 08:23:27;;;;;;;122.47;25.70;;;6.90;99.90;;;;;;4989642;28;20517;-76
2022/12/22 08:26:22;;;;;;;105.80;24.20;;;7.00;99.90;;;;;;4989928;28;20539;-77
2022/12/22 08:28:54;;;;;;;102.32;23.40;;;6.80;99.90;;;;;;4969942;28;20070;-78
2022/12/22 08:31:23;;;;;;;102.18;24.15;;;6.80;99.90;;;;;;4991962;28;20483;-78
2022/12/22 08:33:49;;;;;;;109.00;25.92;;;6.80;99.90;;;;;;4978110;28;20400;-77
2022/12/22 08:36:15;;;;;;;113.47;25.23;;;6.80;99.90;;;;;;4979840;28;20046;-78
2022/12/22 08:38:42;;;;;;;149.68;28.52;;;6.80;99.90;;;;;;4992086;28;20077;-77
2022/12/22 08:41:09;;;;;;;103.03;25.48;;;6.90;99.90;;;;;;4987859;28;20049;-77
2022/12/22 08:43:35;;;;;;;103.65;24.63;;;6.90;99.90;;;;;;4987444;28;20051;-77
2022/12/22 08:46:01;;;;;;;106.50;23.90;;;6.80;99.90;;;;;;4983321;28;20069;-78
2022/12/22 08:48:26;;;;;;;145.43;26.63;;;6.80;99.90;;;;;;4968177;28;20073;-78
2022/12/22 08:50:52;;;;;;;123.22;25.50;;;6.80;99.90;;;;;;4971062;28;20121;-79
2022/12/22 08:53:17;;;;;;;124.00;26.55;;;6.70;99.90;;;;;;4969895;28;20046;-79
2022/12/22 08:55:53;;;;;;;141.82;26.20;;;6.80;99.90;;;;;;4990189;28;20083;-78
2022/12/22 08:58:20;;;;;;;137.13;26.33;;;6.80;99.90;;;;;;4991931;28;20057;-78
2022/12/22 09:00:46;;;;;;;163.25;27.98;;;6.70;99.90;;;;;;4991059;28;20050;-78
2022/12/22 09:03:11;;;;;;;147.65;27.05;;;6.70;99.90;;;;;;4991460;28;20049;-78
2022/12/22 09:05:37;;;;;;;125.53;25.08;;;6.70;99.90;;;;;;4991625;28;20504;-78
2022/12/22 09:08:04;;;;;;;132.57;26.65;;;6.70;99.90;;;;;;4973581;28;20471;-78
2022/12/22 09:10:30;;;;;;;110.80;24.95;;;6.70;99.90;;;;;;4991109;28;20041;-78
2022/12/22 09:12:57;;;;;;;114.60;24.85;;;6.70;99.90;;;;;;4992123;28;20606;-79
2022/12/22 09:15:22;;;;;;;122.63;24.88;;;6.60;99.90;;;;;;4990311;28;20072;-82
2022/12/22 09:17:48;;;;;;;181.50;29.33;;;6.60;99.90;;;;;;4989513;28;20085;-77
2022/12/22 09:20:14;;;;;;;146.65;28.15;;;6.60;99.90;;;;;;4965550;28;20503;-77
2022/12/22 09:22:40;;;;;;;134.27;27.23;;;6.70;99.90;;;;;;4952293;28;20042;-78
2022/12/22 09:25:06;;;;;;;137.45;27.65;;;6.60;99.90;;;;;;4989060;28;20073;-77
2022/12/22 09:27:32;;;;;;;138.15;25.95;;;6.60;99.90;;;;;;4988372;28;20519;-78
2022/12/22 09:29:58;;;;;;;158.82;27.17;;;6.60;99.90;;;;;;4937841;28;20074;-78
2022/12/22 09:32:23;;;;;;;177.80;25.73;;;6.60;99.90;;;;;;4936579;28;20055;-82
2022/12/22 09:34:49;;;;;;;196.48;26.00;;;6.60;99.90;;;;;;4966731;28;20074;-77
2022/12/22 09:37:16;;;;;;;166.18;25.73;;;6.60;99.90;;;;;;4955819;28;20093;-78
2022/12/22 09:39:42;;;;;;;178.10;25.98;;;6.70;99.90;;;;;;4955368;28;20050;-77
2022/12/22 09:42:19;;;;;;;159.77;23.70;;;6.70;99.90;;;;;;4970158;28;20043;-78
2022/12/22 09:44:50;;;;;;;131.15;23.55;;;6.60;99.90;;;;;;4961791;28;20054;-77
2022/12/22 09:47:36;;;;;;;105.50;20.92;;;6.60;99.90;;;;;;4965627;28;20515;-78
2022/12/22 09:50:04;;;;;;;75.03;16.48;;;6.60;99.90;;;;;;4967305;28;20547;-78
2022/12/22 09:52:40;;;;;;;60.25;15.73;;;6.60;99.90;;;;;;4957923;28;20117;-78
2022/12/22 09:55:46;;;;;;;52.00;12.30;;;6.50;99.90;;;;;;4956110;28;20077;-78
2022/12/22 09:58:33;;;;;;;46.78;11.93;;;6.40;99.90;;;;;;4937232;28;20058;-74
2022/12/22 10:01:01;;;;;;;42.13;12.52;;;6.30;99.90;;;;;;4966569;28;20047;-74
2022/12/22 10:03:39;;;;;;;58.53;13.75;;;6.30;99.90;;;;;;4968337;28;20074;-81
2022/12/22 10:06:43;;;;;;;50.00;12.95;;;6.20;99.90;;;;;;4968850;28;20080;-77
2022/12/22 10:09:20;;;;;;;47.90;13.05;;;6.20;99.90;;;;;;4891382;29;20044;-77
2022/12/22 10:11:57;;;;;;;53.38;13.68;;;6.20;99.90;;;;;;4944428;28;20142;-77
2022/12/22 10:14:31;;;;;;;64.38;13.98;;;6.20;99.90;;;;;;4960959;28;20082;-77
2022/12/22 10:17:33;;;;;;;63.53;14.57;;;6.30;99.90;;;;;;4959012;28;20078;-77
2022/12/22 10:20:17;;;;;;;62.22;15.07;;;6.30;99.90;;;;;;4876995;29;20052;-77
2022/12/22 10:22:57;;;;;;;53.50;14.65;;;6.40;99.90;;;;;;4964835;28;20050;-77
2022/12/22 10:25:49;;;;;;;55.90;13.82;;;6.50;99.90;;;;;;4970253;28;20041;-79
2022/12/22 10:28:22;;;;;;;61.70;15.43;;;6.50;99.90;;;;;;4960842;28;20054;-79
2022/12/22 10:30:47;;;;;;;68.82;16.70;;;6.60;99.90;;;;;;4972283;28;20065;-77
2022/12/22 10:33:15;;;;;;;56.13;15.32;;;6.70;99.90;;;;;;4970685;28;20092;-77
2022/12/22 10:35:53;;;;;;;67.60;16.40;;;6.70;99.90;;;;;;4977581;28;20063;-77
2022/12/22 10:38:39;;;;;;;62.65;16.90;;;6.80;99.90;;;;;;4976052;28;20077;-77
2022/12/22 10:41:26;;;;;;;52.70;13.63;;;6.80;99.90;;;;;;4983660;28;20694;-76
2022/12/22 10:44:08;;;;;;;57.70;15.50;;;6.90;99.90;;;;;;4990960;28;20046;-77
2022/12/22 10:46:45;;;;;;;50.70;15.02;;;6.90;99.90;;;;;;4993592;28;20049;-82
2022/12/22 10:49:49;;;;;;;57.42;15.13;;;7.00;99.90;;;;;;4992066;28;20046;-77
2022/12/22 10:52:22;;;;;;;49.10;14.48;;;7.10;99.90;;;;;;4897091;29;20502;-78
2022/12/22 10:54:48;;;;;;;49.03;15.48;;;7.20;99.90;;;;;;4956494;28;20078;-77
2022/12/22 10:57:14;;;;;;;43.60;14.65;;;7.20;99.90;;;;;;4974915;28;20046;-77
2022/12/22 10:59:52;;;;;;;44.42;14.90;;;7.30;99.90;;;;;;4990789;28;20057;-78
2022/12/22 11:02:23;;;;;;;42.80;14.52;;;7.30;99.90;;;;;;4975086;28;20042;-77
2022/12/22 11:04:50;;;;;;;41.55;13.85;;;7.40;99.90;;;;;;4980213;28;20089;-77
2022/12/22 11:07:16;;;;;;;39.50;13.20;;;7.40;99.90;;;;;;4993300;28;20058;-78
2022/12/22 11:09:42;;;;;;;37.35;13.90;;;7.50;99.90;;;;;;4972185;28;20433;-78
2022/12/22 11:12:26;;;;;;;37.70;14.43;;;7.40;99.90;;;;;;4978554;28;20067;-78
2022/12/22 11:15:01;;;;;;;36.25;13.18;;;7.40;99.90;;;;;;4987309;28;20042;-78
2022/12/22 11:18:06;;;;;;;31.25;12.90;;;7.40;99.90;;;;;;4977413;28;20489;-77
2022/12/22 11:20:41;;;;;;;34.42;12.65;;;7.30;99.90;;;;;;4949928;28;20050;-77
2022/12/22 11:23:32;;;;;;;35.65;12.50;;;7.20;99.90;;;;;;4975260;28;20104;-77
2022/12/22 11:26:22;;;;;;;33.65;12.32;;;7.10;99.90;;;;;;4991260;28;20072;-79
2022/12/22 11:29:26;;;;;;;41.78;14.00;;;7.00;99.90;;;;;;4992169;28;20057;-77
2022/12/22 11:32:13;;;;;;;35.03;12.45;;;7.10;99.90;;;;;;4966700;28;20105;-81
2022/12/22 11:34:53;;;;;;;37.67;13.98;;;7.20;99.90;;;;;;4968620;28;20058;-81
2022/12/22 11:37:22;;;;;;;35.10;13.48;;;7.30;99.90;;;;;;4977475;28;20049;-77
2022/12/22 11:40:19;;;;;;;40.80;14.05;;;7.40;99.90;;;;;;4981871;28;20093;-79
2022/12/22 11:42:56;;;;;;;41.30;13.35;;;7.50;99.90;;;;;;4977826;28;20047;-78
2022/12/22 11:45:44;;;;;;;36.97;12.80;;;7.60;99.90;;;;;;4976047;28;20112;-77
2022/12/22 11:48:18;;;;;;;34.03;13.15;;;7.50;99.90;;;;;;4976094;28;20408;-80
2022/12/22 11:50:47;;;;;;;29.17;11.82;;;7.50;99.90;;;;;;4982676;28;20182;-77
2022/12/22 11:53:32;;;;;;;31.20;12.68;;;7.40;99.90;;;;;;4986130;28;20050;-74
2022/12/22 11:56:17;;;;;;;29.90;11.60;;;7.40;99.90;;;;;;4986447;28;20050;-78
2022/12/22 11:59:04;;;;;;;20.65;9.18;;;7.40;99.90;;;;;;4992492;28;20041;-82
2022/12/22 12:02:07;;;;;;;24.88;10.43;;;7.30;99.90;;;;;;4990105;28;20170;-78
2022/12/22 12:05:10;;;;;;;25.10;9.60;;;7.30;99.90;;;;;;4984305;28;20046;-78
2022/12/22 12:07:41;;;;;;;22.92;9.88;;;7.20;99.90;;;;;;4971291;28;20077;-79
2022/12/22 12:10:16;;;;;;;21.35;9.95;;;7.20;99.90;;;;;;4988301;28;20390;-78
2022/12/22 12:13:09;;;;;;;23.75;9.27;;;7.20;99.90;;;;;;4980035;28;20054;-78
2022/12/22 12:15:44;;;;;;;25.75;10.82;;;7.30;99.90;;;;;;4967698;28;20065;-78
2022/12/22 12:18:31;;;;;;;28.35;10.73;;;7.30;99.90;;;;;;4994535;28;20049;-76
2022/12/22 12:21:20;;;;;;;29.75;10.60;;;7.30;99.90;;;;;;4992343;28;20153;-75
2022/12/22 12:23:49;;;;;;;25.08;10.27;;;7.40;99.90;;;;;;4985602;28;20062;-80
2022/12/22 12:26:21;;;;;;;18.30;10.20;;;7.50;99.90;;;;;;5008938;28;20049;-74
2022/12/22 12:29:05;;;;;;;25.83;10.02;;;7.50;99.90;;;;;;4987720;28;20062;-80
2022/12/22 12:31:44;;;;;;;27.35;10.93;;;7.40;99.90;;;;;;4981120;28;20085;-75
2022/12/22 12:34:14;;;;;;;23.77;9.65;;;7.40;99.90;;;;;;4983937;28;20050;-75
2022/12/22 12:37:01;;;;;;;30.83;10.20;;;7.40;99.90;;;;;;4987519;28;20507;-75
2022/12/22 12:39:59;;;;;;;23.20;9.07;;;7.50;99.90;;;;;;4984807;28;20062;-77
2022/12/22 12:42:31;;;;;;;24.80;8.40;;;7.50;99.90;;;;;;4986208;28;20164;-80
2022/12/22 12:44:59;;;;;;;20.38;8.35;;;7.70;99.90;;;;;;4980982;28;20065;-77
2022/12/22 12:47:30;;;;;;;19.80;8.52;;;7.70;99.90;;;;;;4989476;28;20049;-76
2022/12/22 12:49:57;;;;;;;25.05;9.27;;;7.70;99.90;;;;;;4987630;28;21265;-76
2022/12/22 12:52:38;;;;;;;18.80;9.50;;;7.80;99.90;;;;;;4987637;28;20054;-76
2022/12/22 12:55:22;;;;;;;20.70;8.10;;;7.90;99.90;;;;;;4975248;28;20046;-76
2022/12/22 12:57:49;;;;;;;22.65;7.85;;;8.00;99.90;;;;;;4986514;28;20480;-77
2022/12/22 13:00:33;;;;;;;20.10;8.95;;;8.10;99.90;;;;;;4991597;28;20116;-78
2022/12/22 13:03:08;;;;;;;20.95;8.27;;;8.20;99.90;;;;;;4980910;28;20038;-77
2022/12/22 13:05:52;;;;;;;19.67;8.60;;;8.30;99.90;;;;;;5002035;28;20045;-77
2022/12/22 13:08:21;;;;;;;25.85;9.73;;;8.30;99.90;;;;;;4984380;28;20407;-76
2022/12/22 13:10:53;;;;;;;25.30;9.38;;;8.40;99.90;;;;;;4969963;28;20058;-78
2022/12/22 13:13:21;;;;;;;25.05;10.15;;;8.40;99.90;;;;;;4989385;28;20045;-77
2022/12/22 13:16:10;;;;;;;26.02;10.00;;;8.40;99.90;;;;;;4974853;28;20133;-78
2022/12/22 13:18:43;;;;;;;19.67;9.60;;;8.50;99.90;;;;;;4984697;28;20046;-77
2022/12/22 13:21:12;;;;;;;20.23;10.48;;;8.50;99.90;;;;;;4965066;28;20050;-77
2022/12/22 13:23:43;;;;;;;24.75;9.45;;;8.50;99.90;;;;;;4976367;28;20046;-78
2022/12/22 13:26:12;;;;;;;22.85;9.90;;;8.50;99.90;;;;;;4975115;28;20096;-77
2022/12/22 13:28:41;;;;;;;18.00;8.82;;;8.50;99.90;;;;;;4985945;28;20125;-78
2022/12/22 13:31:15;;;;;;;21.27;9.10;;;8.50;99.90;;;;;;4970399;28;20057;-77
2022/12/22 13:33:43;;;;;;;26.73;11.82;;;8.50;99.90;;;;;;4977477;28;20129;-77
2022/12/22 13:36:18;;;;;;;20.85;8.82;;;8.50;99.90;;;;;;4964222;28;20049;-76
2022/12/22 13:38:44;;;;;;;22.25;9.57;;;8.50;99.90;;;;;;4990230;28;20054;-76
2022/12/22 13:41:19;;;;;;;18.60;7.18;;;8.50;99.90;;;;;;4986078;28;20123;-77
2022/12/22 13:43:51;;;;;;;23.70;9.68;;;8.50;99.90;;;;;;4989753;28;20105;-78
2022/12/22 13:46:16;;;;;;;16.58;8.50;;;8.60;99.90;;;;;;4989595;28;20038;-78
2022/12/22 13:48:48;;;;;;;17.45;8.85;;;8.60;99.90;;;;;;4955352;28;20048;-78
2022/12/22 13:51:18;;;;;;;21.83;9.00;;;8.70;99.90;;;;;;4969442;28;20038;-77
2022/12/22 13:53:48;;;;;;;18.80;8.27;;;8.80;99.90;;;;;;4987130;28;20410;-77
2022/12/22 13:56:21;;;;;;;20.17;8.40;;;8.90;99.90;;;;;;4971544;28;20052;-79
2022/12/22 13:59:00;;;;;;;22.52;8.57;;;8.90;99.90;;;;;;4988919;28;20045;-77
2022/12/22 14:01:27;;;;;;;19.27;5.95;;;8.90;99.90;;;;;;4965618;28;20066;-81
2022/12/22 14:04:06;;;;;;;13.98;5.35;;;9.10;99.90;;;;;;4972857;28;20064;-82
2022/12/22 14:06:39;;;;;;;13.50;4.78;;;8.90;99.90;;;;;;4978375;28;20053;-79
2022/12/22 14:09:09;;;;;;;18.20;4.95;;;8.90;99.90;;;;;;4986665;28;20061;-77
2022/12/22 14:11:35;;;;;;;12.15;3.40;;;8.80;99.90;;;;;;4988743;28;20046;-79
2022/12/22 14:14:05;;;;;;;10.82;4.00;;;8.70;99.90;;;;;;4968989;28;20054;-82
2022/12/22 14:16:30;;;;;;;18.92;4.45;;;8.70;99.90;;;;;;4975273;28;20045;-77
2022/12/22 14:18:58;;;;;;;12.40;3.65;;;8.60;99.90;;;;;;4956621;28;21025;-80
2022/12/22 14:21:24;;;;;;;11.63;3.80;;;8.60;99.90;;;;;;4981932;28;20050;-77
2022/12/22 14:23:50;;;;;;;14.20;4.10;;;8.50;99.90;;;;;;4955257;28;20046;-79
2022/12/22 14:26:26;;;;;;;12.38;4.25;;;8.50;99.90;;;;;;5005771;28;20042;-77
2022/12/22 14:28:54;;;;;;;12.00;4.00;;;8.40;99.90;;;;;;4990918;28;20101;-77
2022/12/22 14:31:20;;;;;;;16.50;3.88;;;8.30;99.90;;;;;;4990085;28;20045;-75
2022/12/22 14:33:54;;;;;;;9.85;3.78;;;8.40;99.90;;;;;;4973112;28;20060;-77
2022/12/22 14:36:22;;;;;;;15.20;4.55;;;8.40;99.90;;;;;;4974988;28;20050;-78
2022/12/22 14:38:56;;;;;;;9.38;4.00;;;8.40;99.90;;;;;;4974060;28;20466;-79
2022/12/22 14:41:40;;;;;;;16.73;4.80;;;8.40;99.90;;;;;;4984562;28;20538;-78
2022/12/22 14:44:12;;;;;;;14.20;5.25;;;8.40;99.90;;;;;;4988877;28;20050;-81
2022/12/22 14:46:39;;;;;;;18.98;5.00;;;8.40;99.90;;;;;;4974209;28;20045;-79
2022/12/22 14:49:11;;;;;;;11.30;4.47;;;8.30;99.90;;;;;;4970849;28;20058;-82
2022/12/22 14:51:36;;;;;;;11.48;4.43;;;8.30;99.90;;;;;;4990438;28;20858;-77
2022/12/22 14:54:02;;;;;;;10.88;4.53;;;8.30;99.90;;;;;;4974438;28;20037;-78
2022/12/22 14:56:28;;;;;;;13.13;4.95;;;8.30;99.90;;;;;;4969540;28;20123;-80
2022/12/22 14:59:20;;;;;;;15.02;4.28;;;8.30;99.90;;;;;;4990737;28;20046;-77
2022/12/22 15:02:17;;;;;;;15.05;4.20;;;8.30;99.90;;;;;;4987357;28;20659;-77
2022/12/22 15:04:43;;;;;;;;;;;8.20;99.90;;;;;;4994589;28;20049;-80
2022/12/22 15:07:17;;;;;;;9.40;4.30;;;8.20;99.90;;;;;;4972398;28;19943;-81
2022/12/22 15:09:43;;;;;;;12.63;4.85;;;8.20;99.90;;;;;;4992802;28;20073;-77
2022/12/22 15:12:16;;;;;;;9.05;4.63;;;8.20;99.90;;;;;;4997905;28;20045;-84
2022/12/22 15:14:46;;;;;;;12.32;4.93;;;8.20;99.90;;;;;;4976769;28;20046;-78
2022/12/22 15:17:26;;;;;;;10.70;4.88;;;8.10;99.90;;;;;;4975106;28;20049;-83
2022/12/22 15:19:56;;;;;;;11.52;4.53;;;8.10;99.90;;;;;;4977276;28;20057;-78
2022/12/22 15:22:22;;;;;;;12.77;5.40;;;8.00;99.90;;;;;;4992326;28;20034;-78
2022/12/22 15:24:48;;;;;;;12.90;6.38;;;8.00;99.90;;;;;;5008373;28;20089;-77
2022/12/22 15:27:13;;;;;;;17.98;6.05;;;8.00;99.90;;;;;;4963382;28;20428;-77
2022/12/22 15:29:39;;;;;;;23.20;7.65;;;7.90;99.90;;;;;;4970257;28;20058;-77
2022/12/22 15:32:12;;;;;;;14.10;5.68;;;7.90;99.90;;;;;;4984723;28;20476;-79
2022/12/22 15:34:39;;;;;;;19.33;6.45;;;7.90;99.90;;;;;;4986754;28;20050;-82
2022/12/22 15:37:04;;;;;;;13.40;6.45;;;7.80;99.90;;;;;;4972937;28;20109;-78
2022/12/22 15:39:30;;;;;;;20.83;8.23;;;7.80;99.90;;;;;;4971874;28;20046;-78
2022/12/22 15:41:56;;;;;;;20.98;6.45;;;7.70;99.90;;;;;;4971097;28;20054;-77
2022/12/22 15:44:21;;;;;;;14.02;7.22;;;7.80;99.90;;;;;;4950500;28;20105;-81
2022/12/22 15:46:57;;;;;;;14.32;6.13;;;7.70;99.90;;;;;;4953134;28;20051;-78
2022/12/22 15:49:28;;;;;;;18.75;7.75;;;7.70;99.90;;;;;;4967970;28;20774;-75
2022/12/22 15:51:58;;;;;;;15.50;6.57;;;7.70;99.90;;;;;;4981441;28;20094;-78
2022/12/22 15:54:26;;;;;;;17.75;7.88;;;7.70;99.90;;;;;;4987446;28;20481;-82
2022/12/22 15:56:53;;;;;;;19.45;10.77;;;7.70;99.90;;;;;;4973184;28;20058;-77
2022/12/22 15:59:22;;;;;;;14.77;9.23;;;7.80;99.90;;;;;;4973693;28;20073;-77
2022/12/22 16:01:49;;;;;;;19.65;8.75;;;7.80;99.90;;;;;;4983585;28;20663;-77
2022/12/22 16:04:16;;;;;;;19.08;9.63;;;7.80;99.90;;;;;;4972198;28;20077;-79
2022/12/22 16:06:42;;;;;;;23.05;9.15;;;7.80;99.90;;;;;;4972374;28;20080;-79
2022/12/22 16:09:15;;;;;;;21.17;10.60;;;7.80;99.90;;;;;;4987920;28;20046;-77
2022/12/22 16:11:41;;;;;;;15.38;9.95;;;7.70;99.90;;;;;;4970753;28;20058;-77
2022/12/22 16:14:11;;;;;;;18.08;10.98;;;7.70;99.90;;;;;;4979290;28;20120;-77
2022/12/22 16:16:40;;;;;;;18.77;11.48;;;7.80;99.90;;;;;;4976777;28;20081;-79
2022/12/22 16:19:12;;;;;;;22.60;12.55;;;7.80;99.90;;;;;;4971146;28;20073;-77
2022/12/22 16:21:38;;;;;;;26.63;13.00;;;7.80;99.90;;;;;;4962683;28;20109;-78
2022/12/22 16:24:05;;;;;;;23.38;13.75;;;7.80;99.90;;;;;;4956577;28;20046;-77
2022/12/22 16:26:31;;;;;;;22.98;16.33;;;7.80;99.90;;;;;;4980952;28;20059;-77
2022/12/22 16:28:57;;;;;;;25.17;16.58;;;7.80;99.90;;;;;;4936710;28;20065;-78
2022/12/22 16:31:24;;;;;;;27.00;16.63;;;7.80;99.90;;;;;;4956414;28;20062;-82
2022/12/22 16:33:50;;;;;;;26.33;14.65;;;7.80;99.90;;;;;;4956312;28;20504;-77
2022/12/22 16:36:16;;;;;;;27.75;15.77;;;7.80;99.90;;;;;;4957279;28;20050;-81
2022/12/22 16:38:44;;;;;;;30.10;15.98;;;7.80;99.90;;;;;;4989147;28;20062;-78